• Join FlightAware (Why Join?)
  • Login
  • US Flag 
12:53AM EDT


 

Airport Tracker/Info


-or-


 

Live Flight TrackerFlight Track Log ✈ UAL4407 ✈ 23-Apr-2013 ✈ KMHT - KEWR

Flight Track Log - Related Links

Times and Time Zones

All times are in EDT time to prevent confusion due to time zone crossing. See the UAL4407 flight status page for this flight to view local times or setup timezone preferences in your user account.

Time Position Orientation Groundspeed Altitude Reporting Facility
EDT Latitude Longitude Course Direction KTS MPH feet Rate Location/Type
06:24AM 42.9500 -71.4167 280° West 149 171 1,100  Level KA90
06:25AM 42.9667 -71.4167 360° North 161 185 1,700 2,100 Climbing KA90
06:25AM 42.9753 -71.4128 18° North 209 241 2,400 2,160 Climbing Boston Center
06:26AM 43.0272 -71.4092 North 212 244 4,600 2,700 Climbing Boston Center
06:27AM 42.9578 -71.7124 280° West  Level FlightAware Approximate
06:27AM 43.0656 -71.4994 300° West 196 226 7,800  Level Boston Center
06:28AM 42.9675 -71.8070 280° West  Level FlightAware Approximate
06:28AM 43.0661 -71.5903 271° West 238 274 10,200  Level Boston Center
06:29AM 42.9794 -71.9014 280° West  Level FlightAware Approximate
06:29AM 43.0483 -71.7214 260° West 303 349 11,200  Level Boston Center
06:30AM 43.0325 -71.8436 260° West 355 409 13,100 1,860 Climbing Boston Center
06:31AM 43.0122 -71.9942 260° West 370 426 15,000 1,680 Climbing Boston Center
06:32AM 42.9939 -72.1194 259° West 376 433 16,500 1,500 Climbing Boston Center
06:33AM 42.9775 -72.2472 260° West 376 433 18,000 1,140 Climbing Boston Center
06:34AM 42.9569 -72.4033 260° West 376 433 18,800 840 Climbing Boston Center
06:35AM 42.9381 -72.5761 262° West 376 433 19,900 540 Climbing Boston Center
06:36AM 42.9064 -72.7406 255° West 393 452 20,000  Climbing Boston Center
06:37AM 42.8831 -72.8933 258° West 408 470 20,000  Level Boston Center
06:38AM 42.8658 -73.0292 260° West 408 470 20,000  Level Boston Center
06:39AM 42.8419 -73.1933 259° West 413 475 20,000  Level Boston Center
06:40AM 42.8200 -73.3431 259° West 413 475 20,000 -420 Level Boston Center
06:41AM 42.7978 -73.4897 258° West 413 475 19,200 -1,140 Descending Boston Center
06:42AM 42.7653 -73.6222 252° West 391 450 17,800 -1,500 Descending Boston Center
06:43AM 42.6936 -73.6914 215° Southwest 358 412 16,200 -900 Descending Boston Center
06:44AM 42.5989 -73.7686 211° Southwest 358 412 16,100 -60 Descending Boston Center
06:45AM 42.5192 -73.8233 207° Southwest 364 419 16,100  Level Boston Center
06:46AM 42.4203 -73.8969 209° Southwest 369 425 16,100  Level Boston Center
06:47AM 42.3403 -73.9569 209° Southwest 369 425 16,100  Level Boston Center
06:48AM 42.2414 -74.0275 208° Southwest 369 425 16,100  Level Boston Center
06:49AM 42.1469 -74.0753 201° Southwest 369 425 16,100  Level Boston Center
06:50AM 42.0483 -74.1147 197° South 374 430 16,100  Level Boston Center
06:51AM 41.9644 -74.1544 199° South 369 425 16,100 -360 Level Boston Center
06:52AM 41.8572 -74.1989 197° South 369 425 15,400 -1,440 Descending Boston Center
06:53AM 41.7461 -74.2486 198° South 369 425 13,000 -1,740 Descending Boston Center
06:54AM 41.6728 -74.2800 198° South 340 391 11,600 -1,500 Descending Boston Center
06:55AM 41.5886 -74.3164 198° South 307 353 10,000 -1,500 Descending Boston Center
06:57AM 41.4843 -74.3517 196° South  Level FlightAware Approximate
06:57AM 41.4333 -74.3833 196° South 268 308 7,000  Level New York TRACON
06:58AM 41.3667 -74.4167 201° Southwest 273 314 7,000  Level New York TRACON
06:59AM 41.3000 -74.4500 201° Southwest 269 310 7,000  Level New York TRACON
07:00AM 41.2167 -74.4333 171° South 271 312 7,000  Level New York TRACON
07:01AM 41.1500 -74.4000 159° South 244 281 7,000  Level New York TRACON
07:02AM 41.1000 -74.3667 153° Southeast 227 261 7,000  Level New York TRACON
07:03AM 41.0500 -74.3833 194° South 249 287 7,000  Level New York TRACON
07:04AM 41.0333 -74.4667 255° West 237 273 7,000 -420 Level New York TRACON
07:05AM 41.0167 -74.5667 258° West 235 270 6,200 -360 Descending New York TRACON
07:07AM 40.9255 -74.5591 176° South  Level FlightAware Approximate
07:07AM 40.9333 -74.6333 176° South 226 260 6,000  Level New York TRACON
07:08AM 40.8667 -74.6167 169° South 224 258 6,000 -300 Level New York TRACON
07:10AM 40.7800 -74.5851 165° South  Level FlightAware Approximate
07:11AM 40.6833 -74.5667 78° East 215 247 5,000  Level New York TRACON
07:12AM 40.6167 -74.5500 169° South 214 246 5,000 -240 Level New York TRACON
07:14AM 40.6372 -74.4474 72° East  Level Estimated
07:14AM 40.5167 -74.5167 72° East 193 222 4,400  Level New York TRACON
07:15AM 40.4667 -74.5000 166° South 194 223 3,300 -720 Descending New York TRACON
07:16AM 40.4167 -74.4667 153° Southeast 165 190 3,000 -120 Descending New York TRACON
07:17AM 40.6833 -74.1667 78° East  Level FlightAware Approximate
07:18AM 40.4790 -74.3997 39° Northeast  Level Estimated
07:19AM 40.4500 -74.3167 39° Northeast 163 188 3,000  Level New York TRACON